Terminal Aerodrome Forecast
Issued by NWS

Home | Current Version | Previous Version | Text Only | Print | Product List | Glossary On
Versions: 1 2 3 4 5 6 7 8 9 10 11 12 13 14 15 16 17 18 19 20 21 22 23 24 25 26 27 28 29 30 31 32 33 34 35
000
FTUS43 KLOT 021300 AAA
TAFMDW
TAF AMD
KMDW 021345Z 0214/0312 15007KT P6SM SCT015 BKN025 OVC090
     FM021600 17010KT P6SM BKN030 OVC090
     FM022300 19010G16KT 5SM -SHRA VCTS OVC035CB
      TEMPO 0300/0304 2SM TSRA SCT010 OVC020CB
     FM030500 21012KT 4SM SHRA BR SCT003 BKN007 OVC010=

USA.gov is the U.S. government's official web portal to all federal, state and local government web resources and services.